createdAt,value
2022-10-05T00:02:15.677Z,100603.50
2022-10-05T00:07:20.427Z,100604.47
2022-10-05T00:12:25.593Z,100609.06
2022-10-05T00:17:29.980Z,100612.19
2022-10-05T00:22:33.792Z,100606.06
2022-10-05T00:27:38.943Z,100609.19
2022-10-05T00:32:41.988Z,100615.44
2022-10-05T00:37:45.201Z,100615.63
2022-10-05T00:42:53.793Z,100610.16
2022-10-05T00:48:05.751Z,100608.00
2022-10-05T00:53:13.883Z,100606.34
2022-10-05T00:58:24.022Z,100595.81
2022-10-05T01:03:31.521Z,100585.56
2022-10-05T01:08:42.153Z,100589.19
2022-10-05T01:13:52.408Z,100591.59
2022-10-05T01:19:01.206Z,100597.03
2022-10-05T01:24:30.090Z,100597.50
2022-10-05T01:29:38.148Z,100614.47
2022-10-05T01:34:44.140Z,100608.22
2022-10-05T01:39:50.863Z,100613.69
2022-10-05T01:45:02.685Z,100611.03
2022-10-05T01:50:09.489Z,100608.34
2022-10-05T01:55:18.945Z,100589.38
2022-10-05T02:00:22.953Z,100587.56
2022-10-05T02:05:27.985Z,100589.59
2022-10-05T02:10:33.056Z,100587.63
2022-10-05T02:15:41.754Z,100580.03
2022-10-05T02:20:45.583Z,100592.50
2022-10-05T02:25:50.898Z,100597.78
2022-10-05T02:30:58.235Z,100607.22
2022-10-05T02:36:03.086Z,100608.00
2022-10-05T02:41:11.585Z,100594.31
2022-10-05T02:46:23.045Z,100595.56
2022-10-05T02:51:28.605Z,100590.06
2022-10-05T02:56:36.327Z,100598.63
2022-10-05T03:01:47.224Z,100590.41
2022-10-05T03:06:57.759Z,100584.16
2022-10-05T03:12:09.729Z,100575.13
2022-10-05T03:17:16.340Z,100585.00
2022-10-05T03:22:27.050Z,100593.72
2022-10-05T03:27:37.000Z,100589.63
2022-10-05T03:32:49.112Z,100576.13
2022-10-05T03:37:55.098Z,100575.28
2022-10-05T03:43:09.460Z,100572.81
2022-10-05T03:48:17.070Z,100566.03
2022-10-05T03:53:21.908Z,100572.28
2022-10-05T03:58:27.601Z,100564.03
2022-10-05T04:03:36.704Z,100564.31
2022-10-05T04:08:48.007Z,100555.59
2022-10-05T04:13:59.155Z,100555.28
2022-10-05T04:19:07.196Z,100555.59
2022-10-05T04:24:15.538Z,100553.94
2022-10-05T04:29:30.048Z,100549.47
2022-10-05T04:34:54.635Z,100555.50
2022-10-05T04:40:22.703Z,100545.63
2022-10-05T04:45:33.255Z,100552.53
2022-10-05T04:50:48.534Z,100546.63
2022-10-05T04:55:57.230Z,100550.75
2022-10-05T05:01:09.472Z,100556.00
2022-10-05T05:06:22.216Z,100558.66
2022-10-05T05:11:30.448Z,100553.88
2022-10-05T05:16:37.493Z,100556.69
2022-10-05T05:21:50.851Z,100561.56
2022-10-05T05:27:21.982Z,100563.91
2022-10-05T05:32:36.605Z,100552.91
2022-10-05T05:37:46.711Z,100559.53
2022-10-05T05:42:55.184Z,100558.69
2022-10-05T05:48:00.048Z,100553.28
2022-10-05T05:53:10.847Z,100531.22
2022-10-05T05:58:20.775Z,100524.78
2022-10-05T06:03:26.165Z,100519.03
2022-10-05T06:08:36.237Z,100525.78
2022-10-05T06:13:47.987Z,100514.34
2022-10-05T06:18:53.785Z,100518.00
2022-10-05T06:24:01.584Z,100509.16
2022-10-05T06:29:06.852Z,100505.75
2022-10-05T06:34:20.414Z,100503.38
2022-10-05T06:39:47.877Z,100504.94
2022-10-05T06:44:57.111Z,100515.69
2022-10-05T06:50:16.356Z,100521.97
2022-10-05T06:55:40.243Z,100521.19
2022-10-05T07:00:48.758Z,100514.09
2022-10-05T07:06:00.366Z,100522.50
2022-10-05T07:11:14.094Z,100521.03
2022-10-05T07:16:24.031Z,100521.72
2022-10-05T07:21:34.482Z,100530.75
2022-10-05T07:26:44.132Z,100515.59
2022-10-05T07:31:50.986Z,100522.00
2022-10-05T07:37:14.613Z,100511.97
2022-10-05T07:42:25.891Z,100513.06
2022-10-05T07:47:34.755Z,100510.72
2022-10-05T07:52:40.143Z,100514.88
2022-10-05T07:57:52.467Z,100515.16
2022-10-05T08:02:59.231Z,100495.41
2022-10-05T08:08:05.795Z,100495.50
2022-10-05T08:13:13.439Z,100490.00
2022-10-05T08:18:21.135Z,100490.44
2022-10-05T08:23:25.624Z,100499.97
2022-10-05T08:28:35.199Z,100500.91
2022-10-05T08:33:45.131Z,100495.25
2022-10-05T08:38:48.422Z,100501.16
2022-10-05T08:44:11.539Z,100498.44
2022-10-05T08:49:35.332Z,100505.28
2022-10-05T08:55:10.443Z,100502.41
2022-10-05T09:00:18.460Z,100499.06
2022-10-05T09:05:34.535Z,100495.59
2022-10-05T09:11:04.998Z,100495.81
2022-10-05T09:16:39.688Z,100489.22
2022-10-05T09:21:44.471Z,100486.09
2022-10-05T09:26:59.811Z,100490.59
2022-10-05T09:32:19.904Z,100493.25
2022-10-05T09:37:46.353Z,100491.06
2022-10-05T09:43:02.265Z,100480.63
2022-10-05T09:48:38.673Z,100474.97
2022-10-05T09:54:19.461Z,100468.59
2022-10-05T10:00:00.817Z,100463.28
2022-10-05T10:05:20.118Z,100466.56
2022-10-05T10:10:38.866Z,100455.66
2022-10-05T10:16:04.752Z,100459.53
2022-10-05T10:21:26.241Z,100444.50
2022-10-05T10:26:54.709Z,100457.94
2022-10-05T10:32:10.137Z,100455.91
2022-10-05T10:37:34.645Z,100456.22
2022-10-05T10:42:41.076Z,100447.56
2022-10-05T10:48:00.211Z,100442.94
2022-10-05T10:53:10.496Z,100440.88
2022-10-05T10:58:39.772Z,100435.28
2022-10-05T11:04:08.659Z,100438.22
2022-10-05T11:09:32.925Z,100421.56
2022-10-05T11:14:55.298Z,100420.91
2022-10-05T11:20:09.336Z,100421.25
2022-10-05T11:25:25.909Z,100417.16
2022-10-05T11:30:50.553Z,100411.97
2022-10-05T11:36:04.652Z,100412.94
2022-10-05T11:41:34.203Z,100407.41
2022-10-05T11:46:42.641Z,100399.97
2022-10-05T11:52:01.993Z,100400.53
2022-10-05T11:57:09.099Z,100393.59
2022-10-05T12:02:37.909Z,100385.78
2022-10-05T12:07:50.563Z,100387.31
2022-10-05T12:13:08.527Z,100376.59
2022-10-05T12:18:14.259Z,100369.47
2022-10-05T12:23:21.923Z,100368.69
2022-10-05T12:28:32.347Z,100371.19
2022-10-05T12:33:37.338Z,100366.94
2022-10-05T12:38:44.360Z,100365.34
2022-10-05T12:43:59.015Z,100363.66
2022-10-05T12:49:20.731Z,100366.38
2022-10-05T12:54:25.899Z,100353.00
2022-10-05T12:59:36.965Z,100350.78
2022-10-05T13:04:43.346Z,100354.28
2022-10-05T13:09:49.954Z,100343.66
2022-10-05T13:14:59.752Z,100337.97
2022-10-05T13:20:08.947Z,100347.09
2022-10-05T13:25:28.557Z,100348.34
2022-10-05T13:30:32.604Z,100339.06
2022-10-05T13:35:42.607Z,100333.22
2022-10-05T13:40:49.839Z,100336.84
2022-10-05T13:45:57.022Z,100330.59
2022-10-05T13:51:04.510Z,100324.56
2022-10-05T13:56:13.943Z,100324.31
2022-10-05T14:01:22.326Z,100313.03
2022-10-05T14:06:30.202Z,100325.81
2022-10-05T14:11:35.097Z,100327.13
2022-10-05T14:16:46.642Z,100320.75
2022-10-05T14:21:54.231Z,100320.06
2022-10-05T14:26:58.243Z,100319.50
2022-10-05T14:32:04.524Z,100313.13
2022-10-05T14:37:19.145Z,100319.94
2022-10-05T14:42:23.972Z,100305.56
2022-10-05T14:47:30.542Z,100313.50
2022-10-05T14:52:34.687Z,100314.22
2022-10-05T14:57:43.448Z,100298.91
2022-10-05T15:03:05.683Z,100293.09
2022-10-05T15:08:20.230Z,100305.94
2022-10-05T15:13:25.910Z,100290.03
2022-10-05T15:18:35.892Z,100289.72
2022-10-05T15:23:42.753Z,100284.50
2022-10-05T15:28:49.534Z,100281.97
2022-10-05T15:33:57.360Z,100289.28
2022-10-05T15:39:06.131Z,100282.63
2022-10-05T15:44:16.778Z,100278.25
2022-10-05T15:49:27.674Z,100274.22
2022-10-05T15:54:59.705Z,100275.81
2022-10-05T16:00:05.465Z,100271.47
2022-10-05T16:05:41.794Z,100281.34
2022-10-05T16:10:45.144Z,100287.00
2022-10-05T16:15:51.263Z,100287.75
2022-10-05T16:20:59.854Z,100295.97
2022-10-05T16:26:13.967Z,100301.06
2022-10-05T16:31:20.317Z,100302.28
2022-10-05T16:36:43.061Z,100295.94
2022-10-05T16:41:50.994Z,100285.06
2022-10-05T16:46:58.520Z,100291.19
2022-10-05T16:52:04.968Z,100281.91
2022-10-05T16:57:12.635Z,100280.63
2022-10-05T17:02:24.793Z,100284.75
2022-10-05T17:07:45.447Z,100293.50
2022-10-05T17:12:56.146Z,100303.31
2022-10-05T17:18:13.083Z,100303.47
2022-10-05T17:23:33.447Z,100300.38
2022-10-05T17:28:40.915Z,100308.31
2022-10-05T17:34:11.593Z,100295.41
2022-10-05T17:39:17.454Z,100292.50
2022-10-05T17:44:26.191Z,100288.19
2022-10-05T17:50:15.547Z,100292.06
2022-10-05T17:55:38.272Z,100292.44
2022-10-05T18:00:43.568Z,100287.53
2022-10-05T18:05:46.359Z,100290.38
2022-10-05T18:11:23.837Z,100295.06
2022-10-05T18:16:58.443Z,100291.78
2022-10-05T18:22:04.395Z,100294.66
2022-10-05T18:27:42.956Z,100297.06
2022-10-05T18:33:11.558Z,100298.22
2022-10-05T18:38:32.394Z,100307.78
2022-10-05T18:43:40.853Z,100308.59
2022-10-05T18:48:50.861Z,100302.88
2022-10-05T18:54:04.850Z,100319.25
2022-10-05T18:59:20.646Z,100318.63
2022-10-05T19:04:31.463Z,100330.84
2022-10-05T19:09:47.129Z,100340.41
2022-10-05T19:14:55.682Z,100341.16
2022-10-05T19:20:18.436Z,100353.53
2022-10-05T19:25:32.410Z,100360.28
2022-10-05T19:30:46.634Z,100372.72
2022-10-05T19:35:58.561Z,100373.28
2022-10-05T19:41:07.124Z,100388.00
2022-10-05T19:46:19.099Z,100387.19
2022-10-05T19:51:32.097Z,100391.50
2022-10-05T19:56:35.749Z,100391.50
2022-10-05T20:01:40.330Z,100385.97
2022-10-05T20:06:44.402Z,100400.72
2022-10-05T20:11:50.795Z,100411.34
2022-10-05T20:17:33.862Z,100414.56
2022-10-05T20:22:46.150Z,100431.13
2022-10-05T20:27:50.910Z,100445.16
2022-10-05T20:32:57.516Z,100435.72
2022-10-05T20:38:01.567Z,100454.13
2022-10-05T20:43:04.234Z,100453.66
2022-10-05T20:48:06.913Z,100450.84
2022-10-05T20:53:12.113Z,100462.19
2022-10-05T20:58:14.870Z,100466.22
2022-10-05T21:03:19.247Z,100469.47
2022-10-05T21:08:23.210Z,100478.28
2022-10-05T21:13:26.641Z,100491.09
2022-10-05T21:18:29.793Z,100483.38
2022-10-05T21:23:34.257Z,100496.47
2022-10-05T21:28:37.002Z,100497.94
2022-10-05T21:33:39.763Z,100501.22
2022-10-05T21:38:43.759Z,100500.78
2022-10-05T21:43:46.383Z,100498.84
2022-10-05T21:48:49.531Z,100508.38
2022-10-05T21:53:56.464Z,100513.25
2022-10-05T21:58:59.538Z,100520.56
2022-10-05T22:04:02.358Z,100512.97
2022-10-05T22:09:06.417Z,100518.81
2022-10-05T22:14:09.172Z,100524.50
2022-10-05T22:19:14.910Z,100523.47
2022-10-05T22:24:18.916Z,100532.44
2022-10-05T22:29:22.057Z,100533.44
2022-10-05T22:34:24.667Z,100542.06
2022-10-05T22:39:28.606Z,100534.28
2022-10-05T22:44:31.267Z,100534.41
2022-10-05T22:49:33.900Z,100534.78
2022-10-05T22:54:37.849Z,100534.13
2022-10-05T22:59:40.465Z,100546.78
2022-10-05T23:04:43.126Z,100546.28
2022-10-05T23:09:47.292Z,100549.69
2022-10-05T23:14:50.276Z,100558.16
2022-10-05T23:19:52.935Z,100561.38
2022-10-05T23:24:56.928Z,100562.38
2022-10-05T23:29:59.538Z,100563.91
2022-10-05T23:35:02.153Z,100561.16
2022-10-05T23:40:08.535Z,100567.66
2022-10-05T23:45:12.570Z,100572.66
2022-10-05T23:50:15.186Z,100582.72
2022-10-05T23:55:19.205Z,100593.31
